sensor_id;sensor_type;location;lat;lon;timestamp;temperature;humidity
32334;DHT22;18810;53.040;8.850;2023-12-20T00:01:23;5.80;99.90
32334;DHT22;18810;53.040;8.850;2023-12-20T00:03:48;5.80;99.90
32334;DHT22;18810;53.040;8.850;2023-12-20T00:06:14;5.80;99.90
32334;DHT22;18810;53.040;8.850;2023-12-20T00:08:39;5.60;99.90
32334;DHT22;18810;53.040;8.850;2023-12-20T00:11:05;5.70;99.90
32334;DHT22;18810;53.040;8.850;2023-12-20T00:15:57;5.70;99.90
32334;DHT22;18810;53.040;8.850;2023-12-20T00:20:49;5.70;99.90
32334;DHT22;18810;53.040;8.850;2023-12-20T00:23:15;5.60;99.90
32334;DHT22;18810;53.040;8.850;2023-12-20T00:25:40;5.60;99.90
32334;DHT22;18810;53.040;8.850;2023-12-20T00:28:06;5.40;99.90
32334;DHT22;18810;53.040;8.850;2023-12-20T00:30:32;5.60;99.90
32334;DHT22;18810;53.040;8.850;2023-12-20T00:32:58;5.60;99.90
32334;DHT22;18810;53.040;8.850;2023-12-20T00:35:23;5.60;99.90
32334;DHT22;18810;53.040;8.850;2023-12-20T00:40:15;5.50;99.90
32334;DHT22;18810;53.040;8.850;2023-12-20T00:42:41;5.40;99.90
32334;DHT22;18810;53.040;8.850;2023-12-20T00:45:07;5.40;99.90
32334;DHT22;18810;53.040;8.850;2023-12-20T00:47:33;5.50;99.90
32334;DHT22;18810;53.040;8.850;2023-12-20T00:52:25;5.50;99.90
32334;DHT22;18810;53.040;8.850;2023-12-20T00:57:17;5.60;99.90
32334;DHT22;18810;53.040;8.850;2023-12-20T00:59:43;5.60;99.90
32334;DHT22;18810;53.040;8.850;2023-12-20T01:02:09;5.50;99.90
32334;DHT22;18810;53.040;8.850;2023-12-20T01:04:35;5.50;99.90
32334;DHT22;18810;53.040;8.850;2023-12-20T01:07:01;5.40;99.90
32334;DHT22;18810;53.040;8.850;2023-12-20T01:09:27;5.40;99.90
32334;DHT22;18810;53.040;8.850;2023-12-20T01:11:53;5.40;99.90
32334;DHT22;18810;53.040;8.850;2023-12-20T01:14:19;5.40;99.90
32334;DHT22;18810;53.040;8.850;2023-12-20T01:16:45;5.40;99.90
32334;DHT22;18810;53.040;8.850;2023-12-20T01:19:10;5.50;99.90
32334;DHT22;18810;53.040;8.850;2023-12-20T01:21:36;5.40;99.90
32334;DHT22;18810;53.040;8.850;2023-12-20T01:24:02;5.50;99.90
32334;DHT22;18810;53.040;8.850;2023-12-20T01:26:28;5.40;99.90
32334;DHT22;18810;53.040;8.850;2023-12-20T01:28:53;5.50;99.90
32334;DHT22;18810;53.040;8.850;2023-12-20T01:31:19;5.50;99.90
32334;DHT22;18810;53.040;8.850;2023-12-20T01:33:45;5.40;99.90
32334;DHT22;18810;53.040;8.850;2023-12-20T01:36:11;5.50;99.90
32334;DHT22;18810;53.040;8.850;2023-12-20T01:38:37;5.40;99.90
32334;DHT22;18810;53.040;8.850;2023-12-20T01:41:03;5.40;99.90
32334;DHT22;18810;53.040;8.850;2023-12-20T01:43:29;5.50;99.90
32334;DHT22;18810;53.040;8.850;2023-12-20T01:45:58;5.50;99.90
32334;DHT22;18810;53.040;8.850;2023-12-20T01:48:25;5.50;99.90
32334;DHT22;18810;53.040;8.850;2023-12-20T01:50:52;5.50;99.90
32334;DHT22;18810;53.040;8.850;2023-12-20T01:53:20;5.50;99.90
32334;DHT22;18810;53.040;8.850;2023-12-20T01:55:48;5.60;99.90
32334;DHT22;18810;53.040;8.850;2023-12-20T01:58:15;5.50;99.90
32334;DHT22;18810;53.040;8.850;2023-12-20T02:00:41;5.50;99.90
32334;DHT22;18810;53.040;8.850;2023-12-20T02:03:07;5.50;99.90
32334;DHT22;18810;53.040;8.850;2023-12-20T02:05:35;5.50;99.90
32334;DHT22;18810;53.040;8.850;2023-12-20T02:08:01;5.40;99.90
32334;DHT22;18810;53.040;8.850;2023-12-20T02:10:28;5.40;99.90
32334;DHT22;18810;53.040;8.850;2023-12-20T02:12:54;5.50;99.90
32334;DHT22;18810;53.040;8.850;2023-12-20T02:15:20;5.20;99.90
32334;DHT22;18810;53.040;8.850;2023-12-20T02:17:47;5.40;99.90
32334;DHT22;18810;53.040;8.850;2023-12-20T02:20:13;5.40;99.90
32334;DHT22;18810;53.040;8.850;2023-12-20T02:22:39;5.40;99.90
32334;DHT22;18810;53.040;8.850;2023-12-20T02:25:05;5.40;99.90
32334;DHT22;18810;53.040;8.850;2023-12-20T02:27:31;5.50;99.90
32334;DHT22;18810;53.040;8.850;2023-12-20T02:29:57;5.40;99.90
32334;DHT22;18810;53.040;8.850;2023-12-20T02:32:24;5.20;99.90
32334;DHT22;18810;53.040;8.850;2023-12-20T02:34:52;5.20;99.90
32334;DHT22;18810;53.040;8.850;2023-12-20T02:37:18;5.30;99.90
32334;DHT22;18810;53.040;8.850;2023-12-20T02:42:10;5.30;99.90
32334;DHT22;18810;53.040;8.850;2023-12-20T02:44:36;5.40;99.90
32334;DHT22;18810;53.040;8.850;2023-12-20T02:47:02;5.40;99.90
32334;DHT22;18810;53.040;8.850;2023-12-20T02:49:28;5.40;99.90
32334;DHT22;18810;53.040;8.850;2023-12-20T02:54:20;5.30;99.90
32334;DHT22;18810;53.040;8.850;2023-12-20T02:56:45;5.40;99.90
32334;DHT22;18810;53.040;8.850;2023-12-20T02:59:11;5.30;99.90
32334;DHT22;18810;53.040;8.850;2023-12-20T03:01:46;5.40;99.90
32334;DHT22;18810;53.040;8.850;2023-12-20T03:04:12;5.40;99.90
32334;DHT22;18810;53.040;8.850;2023-12-20T03:06:38;5.50;99.90
32334;DHT22;18810;53.040;8.850;2023-12-20T03:09:04;5.50;99.90
32334;DHT22;18810;53.040;8.850;2023-12-20T03:11:30;5.50;99.90
32334;DHT22;18810;53.040;8.850;2023-12-20T03:13:56;5.60;99.90
32334;DHT22;18810;53.040;8.850;2023-12-20T03:16:22;5.50;99.90
32334;DHT22;18810;53.040;8.850;2023-12-20T03:18:48;5.60;99.90
32334;DHT22;18810;53.040;8.850;2023-12-20T03:21:14;5.60;99.90
32334;DHT22;18810;53.040;8.850;2023-12-20T03:23:40;5.50;99.90
32334;DHT22;18810;53.040;8.850;2023-12-20T03:26:09;5.60;99.90
32334;DHT22;18810;53.040;8.850;2023-12-20T03:28:36;5.60;99.90
32334;DHT22;18810;53.040;8.850;2023-12-20T03:31:02;5.70;99.90
32334;DHT22;18810;53.040;8.850;2023-12-20T03:33:28;5.50;99.90
32334;DHT22;18810;53.040;8.850;2023-12-20T03:35:54;5.50;99.90
32334;DHT22;18810;53.040;8.850;2023-12-20T03:38:21;5.60;99.90
32334;DHT22;18810;53.040;8.850;2023-12-20T03:40:47;5.70;99.90
32334;DHT22;18810;53.040;8.850;2023-12-20T03:43:12;5.70;99.90
32334;DHT22;18810;53.040;8.850;2023-12-20T03:45:38;5.70;99.90
32334;DHT22;18810;53.040;8.850;2023-12-20T03:48:04;5.90;99.90
32334;DHT22;18810;53.040;8.850;2023-12-20T03:50:30;5.80;99.90
32334;DHT22;18810;53.040;8.850;2023-12-20T03:55:22;5.80;99.90
32334;DHT22;18810;53.040;8.850;2023-12-20T03:57:48;5.80;99.90
32334;DHT22;18810;53.040;8.850;2023-12-20T04:00:14;5.80;99.90
32334;DHT22;18810;53.040;8.850;2023-12-20T04:02:41;5.80;99.90
32334;DHT22;18810;53.040;8.850;2023-12-20T04:05:07;5.80;99.90
32334;DHT22;18810;53.040;8.850;2023-12-20T04:07:34;5.90;99.90
32334;DHT22;18810;53.040;8.850;2023-12-20T04:10:00;5.70;99.90
32334;DHT22;18810;53.040;8.850;2023-12-20T04:12:27;5.90;99.90
32334;DHT22;18810;53.040;8.850;2023-12-20T04:14:53;5.90;99.90
32334;DHT22;18810;53.040;8.850;2023-12-20T04:17:20;5.90;99.90
32334;DHT22;18810;53.040;8.850;2023-12-20T04:19:48;5.80;99.90
32334;DHT22;18810;53.040;8.850;2023-12-20T04:22:14;5.80;99.90
32334;DHT22;18810;53.040;8.850;2023-12-20T04:24:39;5.80;99.90
32334;DHT22;18810;53.040;8.850;2023-12-20T04:27:08;5.90;99.90
32334;DHT22;18810;53.040;8.850;2023-12-20T04:29:34;5.80;99.90
32334;DHT22;18810;53.040;8.850;2023-12-20T04:34:26;5.90;99.90
32334;DHT22;18810;53.040;8.850;2023-12-20T04:36:52;5.90;99.90
32334;DHT22;18810;53.040;8.850;2023-12-20T04:39:18;5.80;99.90
32334;DHT22;18810;53.040;8.850;2023-12-20T04:41:43;5.80;99.90
32334;DHT22;18810;53.040;8.850;2023-12-20T04:44:09;6.00;99.90
32334;DHT22;18810;53.040;8.850;2023-12-20T04:46:35;5.90;99.90
32334;DHT22;18810;53.040;8.850;2023-12-20T04:49:01;5.80;99.90
32334;DHT22;18810;53.040;8.850;2023-12-20T04:51:27;5.80;99.90
32334;DHT22;18810;53.040;8.850;2023-12-20T04:56:18;5.70;99.90
32334;DHT22;18810;53.040;8.850;2023-12-20T04:58:45;5.80;99.90
32334;DHT22;18810;53.040;8.850;2023-12-20T05:01:11;5.70;99.90
32334;DHT22;18810;53.040;8.850;2023-12-20T05:03:37;5.80;99.90
32334;DHT22;18810;53.040;8.850;2023-12-20T05:08:29;5.80;99.90
32334;DHT22;18810;53.040;8.850;2023-12-20T05:10:55;5.80;99.90
32334;DHT22;18810;53.040;8.850;2023-12-20T05:13:21;6.00;99.90
32334;DHT22;18810;53.040;8.850;2023-12-20T05:15:47;5.90;99.90
32334;DHT22;18810;53.040;8.850;2023-12-20T05:18:13;5.70;99.90
32334;DHT22;18810;53.040;8.850;2023-12-20T05:20:39;5.80;99.90
32334;DHT22;18810;53.040;8.850;2023-12-20T05:23:05;5.90;99.90
32334;DHT22;18810;53.040;8.850;2023-12-20T05:25:30;5.70;99.90
32334;DHT22;18810;53.040;8.850;2023-12-20T05:27:56;6.00;99.90
32334;DHT22;18810;53.040;8.850;2023-12-20T05:30:22;5.90;99.90
32334;DHT22;18810;53.040;8.850;2023-12-20T05:32:47;6.00;99.90
32334;DHT22;18810;53.040;8.850;2023-12-20T05:35:13;5.90;99.90
32334;DHT22;18810;53.040;8.850;2023-12-20T05:37:39;5.90;99.90
32334;DHT22;18810;53.040;8.850;2023-12-20T05:40:05;5.90;99.90
32334;DHT22;18810;53.040;8.850;2023-12-20T05:42:31;5.90;99.90
32334;DHT22;18810;53.040;8.850;2023-12-20T05:44:57;5.90;99.90
32334;DHT22;18810;53.040;8.850;2023-12-20T05:47:23;5.90;99.90
32334;DHT22;18810;53.040;8.850;2023-12-20T05:49:48;5.90;99.90
32334;DHT22;18810;53.040;8.850;2023-12-20T05:52:15;5.90;99.90
32334;DHT22;18810;53.040;8.850;2023-12-20T05:54:41;6.20;99.90
32334;DHT22;18810;53.040;8.850;2023-12-20T05:57:07;6.00;99.90
32334;DHT22;18810;53.040;8.850;2023-12-20T05:59:32;6.10;99.90
32334;DHT22;18810;53.040;8.850;2023-12-20T06:04:24;6.10;99.90
32334;DHT22;18810;53.040;8.850;2023-12-20T06:06:50;6.20;99.90
32334;DHT22;18810;53.040;8.850;2023-12-20T06:09:15;6.20;99.90
32334;DHT22;18810;53.040;8.850;2023-12-20T06:11:42;6.30;99.90
32334;DHT22;18810;53.040;8.850;2023-12-20T06:14:08;6.20;99.90
32334;DHT22;18810;53.040;8.850;2023-12-20T06:16:33;6.20;99.90
32334;DHT22;18810;53.040;8.850;2023-12-20T06:18:59;6.20;99.90
32334;DHT22;18810;53.040;8.850;2023-12-20T06:21:25;6.30;99.90
32334;DHT22;18810;53.040;8.850;2023-12-20T06:23:51;6.30;99.90
32334;DHT22;18810;53.040;8.850;2023-12-20T06:26:16;6.30;99.90
32334;DHT22;18810;53.040;8.850;2023-12-20T06:28:42;6.30;99.90
32334;DHT22;18810;53.040;8.850;2023-12-20T06:31:08;6.50;99.90
32334;DHT22;18810;53.040;8.850;2023-12-20T06:33:34;6.40;99.90
32334;DHT22;18810;53.040;8.850;2023-12-20T06:36:00;6.40;99.90
32334;DHT22;18810;53.040;8.850;2023-12-20T06:38:26;6.40;99.90
32334;DHT22;18810;53.040;8.850;2023-12-20T06:40:52;6.30;99.90
32334;DHT22;18810;53.040;8.850;2023-12-20T06:43:18;6.40;99.90
32334;DHT22;18810;53.040;8.850;2023-12-20T06:45:43;6.40;99.90
32334;DHT22;18810;53.040;8.850;2023-12-20T06:48:09;6.40;99.90
32334;DHT22;18810;53.040;8.850;2023-12-20T06:50:37;6.50;99.90
32334;DHT22;18810;53.040;8.850;2023-12-20T06:53:05;6.40;99.90
32334;DHT22;18810;53.040;8.850;2023-12-20T06:55:33;6.40;99.90
32334;DHT22;18810;53.040;8.850;2023-12-20T06:58:01;6.50;99.90
32334;DHT22;18810;53.040;8.850;2023-12-20T07:00:27;6.60;99.90
32334;DHT22;18810;53.040;8.850;2023-12-20T07:02:52;6.50;99.90
32334;DHT22;18810;53.040;8.850;2023-12-20T07:05:18;6.60;99.90
32334;DHT22;18810;53.040;8.850;2023-12-20T07:07:45;6.40;99.90
32334;DHT22;18810;53.040;8.850;2023-12-20T07:10:12;6.50;99.90
32334;DHT22;18810;53.040;8.850;2023-12-20T07:12:38;6.70;99.90
32334;DHT22;18810;53.040;8.850;2023-12-20T07:15:04;6.50;99.90
32334;DHT22;18810;53.040;8.850;2023-12-20T07:17:31;6.50;99.90
32334;DHT22;18810;53.040;8.850;2023-12-20T07:19:58;6.70;99.90
32334;DHT22;18810;53.040;8.850;2023-12-20T07:22:24;6.50;99.90
32334;DHT22;18810;53.040;8.850;2023-12-20T07:24:50;6.50;99.90
32334;DHT22;18810;53.040;8.850;2023-12-20T07:27:17;6.70;99.90
32334;DHT22;18810;53.040;8.850;2023-12-20T07:29:43;6.60;99.90
32334;DHT22;18810;53.040;8.850;2023-12-20T07:32:09;6.60;99.90
32334;DHT22;18810;53.040;8.850;2023-12-20T07:34:34;6.70;99.90
32334;DHT22;18810;53.040;8.850;2023-12-20T07:37:00;6.70;99.90
32334;DHT22;18810;53.040;8.850;2023-12-20T07:39:26;6.90;99.90
32334;DHT22;18810;53.040;8.850;2023-12-20T07:41:51;6.80;99.90
32334;DHT22;18810;53.040;8.850;2023-12-20T07:44:17;6.80;99.90
32334;DHT22;18810;53.040;8.850;2023-12-20T07:46:43;6.80;99.90
32334;DHT22;18810;53.040;8.850;2023-12-20T07:49:08;6.80;99.90
32334;DHT22;18810;53.040;8.850;2023-12-20T07:51:35;6.80;99.90
32334;DHT22;18810;53.040;8.850;2023-12-20T07:54:01;6.80;99.90
32334;DHT22;18810;53.040;8.850;2023-12-20T07:56:27;6.70;99.90
32334;DHT22;18810;53.040;8.850;2023-12-20T07:58:52;7.20;99.90
32334;DHT22;18810;53.040;8.850;2023-12-20T08:01:18;6.90;99.90
32334;DHT22;18810;53.040;8.850;2023-12-20T08:03:44;6.80;99.90
32334;DHT22;18810;53.040;8.850;2023-12-20T08:06:10;6.80;99.90
32334;DHT22;18810;53.040;8.850;2023-12-20T08:08:35;6.80;99.90
32334;DHT22;18810;53.040;8.850;2023-12-20T08:11:01;6.90;99.90
32334;DHT22;18810;53.040;8.850;2023-12-20T08:13:28;6.80;99.90
32334;DHT22;18810;53.040;8.850;2023-12-20T08:15:53;7.00;99.90
32334;DHT22;18810;53.040;8.850;2023-12-20T08:18:21;7.00;99.90
32334;DHT22;18810;53.040;8.850;2023-12-20T08:20:47;7.00;99.90
32334;DHT22;18810;53.040;8.850;2023-12-20T08:23:13;7.20;99.90
32334;DHT22;18810;53.040;8.850;2023-12-20T08:25:39;7.00;99.90
32334;DHT22;18810;53.040;8.850;2023-12-20T08:28:05;7.00;99.90
32334;DHT22;18810;53.040;8.850;2023-12-20T08:30:31;7.00;99.90
32334;DHT22;18810;53.040;8.850;2023-12-20T08:33:00;6.90;99.90
32334;DHT22;18810;53.040;8.850;2023-12-20T08:35:26;6.90;99.90
32334;DHT22;18810;53.040;8.850;2023-12-20T08:37:51;6.90;99.90
32334;DHT22;18810;53.040;8.850;2023-12-20T08:40:17;7.00;99.90
32334;DHT22;18810;53.040;8.850;2023-12-20T08:42:43;7.10;99.90
32334;DHT22;18810;53.040;8.850;2023-12-20T08:45:09;7.10;99.90
32334;DHT22;18810;53.040;8.850;2023-12-20T08:47:35;7.10;99.90
32334;DHT22;18810;53.040;8.850;2023-12-20T08:50:02;7.10;99.90
32334;DHT22;18810;53.040;8.850;2023-12-20T08:52:27;7.10;99.90
32334;DHT22;18810;53.040;8.850;2023-12-20T08:54:55;7.10;99.90
32334;DHT22;18810;53.040;8.850;2023-12-20T08:57:21;7.00;99.90
32334;DHT22;18810;53.040;8.850;2023-12-20T08:59:50;7.10;99.90
32334;DHT22;18810;53.040;8.850;2023-12-20T09:02:18;7.20;99.90
32334;DHT22;18810;53.040;8.850;2023-12-20T09:04:44;7.20;99.90
32334;DHT22;18810;53.040;8.850;2023-12-20T09:07:26;7.10;99.90
32334;DHT22;18810;53.040;8.850;2023-12-20T09:09:53;7.00;99.90
32334;DHT22;18810;53.040;8.850;2023-12-20T09:12:19;7.00;99.90
32334;DHT22;18810;53.040;8.850;2023-12-20T09:14:49;6.90;99.90
32334;DHT22;18810;53.040;8.850;2023-12-20T09:17:15;6.80;99.90
32334;DHT22;18810;53.040;8.850;2023-12-20T09:19:42;6.70;99.90
32334;DHT22;18810;53.040;8.850;2023-12-20T09:22:09;6.90;99.90
32334;DHT22;18810;53.040;8.850;2023-12-20T09:24:35;6.70;99.90
32334;DHT22;18810;53.040;8.850;2023-12-20T09:27:01;6.80;99.90
32334;DHT22;18810;53.040;8.850;2023-12-20T09:29:27;6.80;99.90
32334;DHT22;18810;53.040;8.850;2023-12-20T09:31:52;6.70;99.90
32334;DHT22;18810;53.040;8.850;2023-12-20T09:34:18;6.80;99.90
32334;DHT22;18810;53.040;8.850;2023-12-20T09:36:44;6.80;99.90
32334;DHT22;18810;53.040;8.850;2023-12-20T09:39:17;6.80;99.90
32334;DHT22;18810;53.040;8.850;2023-12-20T09:42:01;6.90;99.90
32334;DHT22;18810;53.040;8.850;2023-12-20T09:44:28;6.60;99.90
32334;DHT22;18810;53.040;8.850;2023-12-20T09:46:55;6.80;99.90
32334;DHT22;18810;53.040;8.850;2023-12-20T09:49:22;6.90;99.90
32334;DHT22;18810;53.040;8.850;2023-12-20T09:51:50;6.90;99.90
32334;DHT22;18810;53.040;8.850;2023-12-20T09:54:17;6.80;99.90
32334;DHT22;18810;53.040;8.850;2023-12-20T09:56:44;6.60;99.90
32334;DHT22;18810;53.040;8.850;2023-12-20T09:59:10;6.20;99.90
32334;DHT22;18810;53.040;8.850;2023-12-20T10:01:36;6.10;99.90
32334;DHT22;18810;53.040;8.850;2023-12-20T10:04:06;6.10;99.90
32334;DHT22;18810;53.040;8.850;2023-12-20T10:06:36;5.90;99.90
32334;DHT22;18810;53.040;8.850;2023-12-20T10:09:02;5.60;99.90
32334;DHT22;18810;53.040;8.850;2023-12-20T10:11:28;5.50;99.90
32334;DHT22;18810;53.040;8.850;2023-12-20T10:13:59;5.40;99.90
32334;DHT22;18810;53.040;8.850;2023-12-20T10:16:27;5.10;99.90
32334;DHT22;18810;53.040;8.850;2023-12-20T10:18:56;5.20;99.90
32334;DHT22;18810;53.040;8.850;2023-12-20T10:21:25;5.40;99.90
32334;DHT22;18810;53.040;8.850;2023-12-20T10:23:55;5.20;99.90
32334;DHT22;18810;53.040;8.850;2023-12-20T10:26:30;5.20;99.90
32334;DHT22;18810;53.040;8.850;2023-12-20T10:29:00;5.30;99.90
32334;DHT22;18810;53.040;8.850;2023-12-20T10:31:33;5.30;99.90
32334;DHT22;18810;53.040;8.850;2023-12-20T10:34:01;5.40;99.90
32334;DHT22;18810;53.040;8.850;2023-12-20T10:36:30;5.30;99.90
32334;DHT22;18810;53.040;8.850;2023-12-20T10:38:56;5.40;99.90
32334;DHT22;18810;53.040;8.850;2023-12-20T10:41:32;5.40;99.90
32334;DHT22;18810;53.040;8.850;2023-12-20T10:44:02;5.40;99.90
32334;DHT22;18810;53.040;8.850;2023-12-20T10:46:29;5.40;99.90
32334;DHT22;18810;53.040;8.850;2023-12-20T10:48:57;5.50;99.90
32334;DHT22;18810;53.040;8.850;2023-12-20T10:51:24;5.60;99.90
32334;DHT22;18810;53.040;8.850;2023-12-20T10:53:56;5.60;99.90
32334;DHT22;18810;53.040;8.850;2023-12-20T10:56:22;5.60;99.90
32334;DHT22;18810;53.040;8.850;2023-12-20T10:58:49;5.70;99.90
32334;DHT22;18810;53.040;8.850;2023-12-20T11:01:17;5.70;99.90
32334;DHT22;18810;53.040;8.850;2023-12-20T11:03:53;5.60;99.90
32334;DHT22;18810;53.040;8.850;2023-12-20T11:09:14;5.70;99.90
32334;DHT22;18810;53.040;8.850;2023-12-20T11:14:51;6.50;99.90
32334;DHT22;18810;53.040;8.850;2023-12-20T11:17:18;6.90;99.90
32334;DHT22;18810;53.040;8.850;2023-12-20T11:22:20;7.00;99.90
32334;DHT22;18810;53.040;8.850;2023-12-20T11:24:51;7.10;99.90
32334;DHT22;18810;53.040;8.850;2023-12-20T11:27:18;7.20;99.90
32334;DHT22;18810;53.040;8.850;2023-12-20T11:29:51;7.30;99.90
32334;DHT22;18810;53.040;8.850;2023-12-20T11:34:58;7.20;99.90
32334;DHT22;18810;53.040;8.850;2023-12-20T11:37:30;7.40;99.90
32334;DHT22;18810;53.040;8.850;2023-12-20T11:40:02;7.10;99.90
32334;DHT22;18810;53.040;8.850;2023-12-20T11:42:39;7.30;99.90
32334;DHT22;18810;53.040;8.850;2023-12-20T11:45:24;7.40;99.90
32334;DHT22;18810;53.040;8.850;2023-12-20T11:47:50;7.60;99.90
32334;DHT22;18810;53.040;8.850;2023-12-20T11:50:17;7.70;99.90
32334;DHT22;18810;53.040;8.850;2023-12-20T11:52:43;7.90;99.90
32334;DHT22;18810;53.040;8.850;2023-12-20T11:55:09;7.70;99.90
32334;DHT22;18810;53.040;8.850;2023-12-20T11:57:35;7.80;99.90
32334;DHT22;18810;53.040;8.850;2023-12-20T12:00:02;7.80;99.90
32334;DHT22;18810;53.040;8.850;2023-12-20T12:02:28;7.90;99.90
32334;DHT22;18810;53.040;8.850;2023-12-20T12:04:54;7.70;99.90
32334;DHT22;18810;53.040;8.850;2023-12-20T12:07:21;7.30;99.90
32334;DHT22;18810;53.040;8.850;2023-12-20T12:09:47;7.40;99.90
32334;DHT22;18810;53.040;8.850;2023-12-20T12:12:13;7.10;99.90
32334;DHT22;18810;53.040;8.850;2023-12-20T12:14:39;7.50;99.90
32334;DHT22;18810;53.040;8.850;2023-12-20T12:17:12;7.40;99.90
32334;DHT22;18810;53.040;8.850;2023-12-20T12:19:41;7.20;99.90
32334;DHT22;18810;53.040;8.850;2023-12-20T12:22:09;7.50;99.90
32334;DHT22;18810;53.040;8.850;2023-12-20T12:24:39;8.30;99.90
32334;DHT22;18810;53.040;8.850;2023-12-20T12:27:08;8.20;99.90
32334;DHT22;18810;53.040;8.850;2023-12-20T12:29:35;8.40;99.90
32334;DHT22;18810;53.040;8.850;2023-12-20T12:32:02;8.50;99.90
32334;DHT22;18810;53.040;8.850;2023-12-20T12:34:29;8.10;99.90
32334;DHT22;18810;53.040;8.850;2023-12-20T12:36:56;8.10;99.90
32334;DHT22;18810;53.040;8.850;2023-12-20T12:39:23;7.80;99.90
32334;DHT22;18810;53.040;8.850;2023-12-20T12:41:50;7.50;99.90
32334;DHT22;18810;53.040;8.850;2023-12-20T12:44:16;7.10;99.90
32334;DHT22;18810;53.040;8.850;2023-12-20T12:46:44;7.10;99.90
32334;DHT22;18810;53.040;8.850;2023-12-20T12:49:10;6.90;99.90
32334;DHT22;18810;53.040;8.850;2023-12-20T12:51:36;7.10;99.90
32334;DHT22;18810;53.040;8.850;2023-12-20T12:54:01;7.00;99.90
32334;DHT22;18810;53.040;8.850;2023-12-20T12:56:27;7.00;99.90
32334;DHT22;18810;53.040;8.850;2023-12-20T12:58:53;7.20;99.90
32334;DHT22;18810;53.040;8.850;2023-12-20T13:01:19;7.30;99.90
32334;DHT22;18810;53.040;8.850;2023-12-20T13:03:44;7.20;99.90
32334;DHT22;18810;53.040;8.850;2023-12-20T13:06:10;7.30;99.90
32334;DHT22;18810;53.040;8.850;2023-12-20T13:08:36;7.20;99.90
32334;DHT22;18810;53.040;8.850;2023-12-20T13:11:02;6.70;99.90
32334;DHT22;18810;53.040;8.850;2023-12-20T13:13:30;6.70;99.90
32334;DHT22;18810;53.040;8.850;2023-12-20T13:15:56;6.70;99.90
32334;DHT22;18810;53.040;8.850;2023-12-20T13:18:22;6.70;99.90
32334;DHT22;18810;53.040;8.850;2023-12-20T13:20:49;6.80;99.90
32334;DHT22;18810;53.040;8.850;2023-12-20T13:23:14;6.80;99.90
32334;DHT22;18810;53.040;8.850;2023-12-20T13:25:41;6.60;99.90
32334;DHT22;18810;53.040;8.850;2023-12-20T13:28:07;6.70;99.90
32334;DHT22;18810;53.040;8.850;2023-12-20T13:30:34;6.80;99.90
32334;DHT22;18810;53.040;8.850;2023-12-20T13:32:59;6.80;99.90
32334;DHT22;18810;53.040;8.850;2023-12-20T13:35:25;6.90;99.90
32334;DHT22;18810;53.040;8.850;2023-12-20T13:37:51;7.00;99.90
32334;DHT22;18810;53.040;8.850;2023-12-20T13:40:17;7.00;99.90
32334;DHT22;18810;53.040;8.850;2023-12-20T13:42:43;7.00;99.90
32334;DHT22;18810;53.040;8.850;2023-12-20T13:45:09;6.90;99.90
32334;DHT22;18810;53.040;8.850;2023-12-20T13:47:35;7.00;99.90
32334;DHT22;18810;53.040;8.850;2023-12-20T13:50:02;6.90;99.90
32334;DHT22;18810;53.040;8.850;2023-12-20T13:52:28;7.00;99.90
32334;DHT22;18810;53.040;8.850;2023-12-20T13:54:54;6.90;99.90
32334;DHT22;18810;53.040;8.850;2023-12-20T13:57:19;6.90;99.90
32334;DHT22;18810;53.040;8.850;2023-12-20T13:59:45;7.00;99.90
32334;DHT22;18810;53.040;8.850;2023-12-20T14:02:11;6.90;99.90
32334;DHT22;18810;53.040;8.850;2023-12-20T14:04:36;7.30;99.90
32334;DHT22;18810;53.040;8.850;2023-12-20T14:07:04;7.00;99.90
32334;DHT22;18810;53.040;8.850;2023-12-20T14:09:30;6.90;99.90
32334;DHT22;18810;53.040;8.850;2023-12-20T14:11:56;6.90;99.90
32334;DHT22;18810;53.040;8.850;2023-12-20T14:14:22;6.90;99.90
32334;DHT22;18810;53.040;8.850;2023-12-20T14:16:48;6.70;99.90
32334;DHT22;18810;53.040;8.850;2023-12-20T14:19:13;6.80;99.90
32334;DHT22;18810;53.040;8.850;2023-12-20T14:21:39;6.80;99.90
32334;DHT22;18810;53.040;8.850;2023-12-20T14:24:05;6.80;99.90
32334;DHT22;18810;53.040;8.850;2023-12-20T14:26:31;6.70;99.90
32334;DHT22;18810;53.040;8.850;2023-12-20T14:28:57;6.80;99.90
32334;DHT22;18810;53.040;8.850;2023-12-20T14:31:23;6.70;99.90
32334;DHT22;18810;53.040;8.850;2023-12-20T14:33:50;6.80;99.90
32334;DHT22;18810;53.040;8.850;2023-12-20T14:36:17;6.70;99.90
32334;DHT22;18810;53.040;8.850;2023-12-20T14:38:43;6.80;99.90
32334;DHT22;18810;53.040;8.850;2023-12-20T14:41:09;6.80;99.90
32334;DHT22;18810;53.040;8.850;2023-12-20T14:43:35;6.80;99.90
32334;DHT22;18810;53.040;8.850;2023-12-20T14:46:01;6.80;99.90
32334;DHT22;18810;53.040;8.850;2023-12-20T14:48:27;6.70;99.90
32334;DHT22;18810;53.040;8.850;2023-12-20T14:50:53;6.70;99.90
32334;DHT22;18810;53.040;8.850;2023-12-20T14:53:19;6.70;99.90
32334;DHT22;18810;53.040;8.850;2023-12-20T14:55:46;6.70;99.90
32334;DHT22;18810;53.040;8.850;2023-12-20T14:58:12;6.70;99.90
32334;DHT22;18810;53.040;8.850;2023-12-20T15:00:38;6.70;99.90
32334;DHT22;18810;53.040;8.850;2023-12-20T15:03:04;6.70;99.90
32334;DHT22;18810;53.040;8.850;2023-12-20T15:05:31;6.70;99.90
32334;DHT22;18810;53.040;8.850;2023-12-20T15:07:56;6.70;99.90
32334;DHT22;18810;53.040;8.850;2023-12-20T15:10:22;6.70;99.90
32334;DHT22;18810;53.040;8.850;2023-12-20T15:12:48;6.70;99.90
32334;DHT22;18810;53.040;8.850;2023-12-20T15:15:14;6.60;99.90
32334;DHT22;18810;53.040;8.850;2023-12-20T15:17:40;6.70;99.90
32334;DHT22;18810;53.040;8.850;2023-12-20T15:20:06;6.80;99.90
32334;DHT22;18810;53.040;8.850;2023-12-20T15:22:35;6.80;99.90
32334;DHT22;18810;53.040;8.850;2023-12-20T15:25:02;6.80;99.90
32334;DHT22;18810;53.040;8.850;2023-12-20T15:27:28;6.80;99.90
32334;DHT22;18810;53.040;8.850;2023-12-20T15:29:54;6.80;99.90
32334;DHT22;18810;53.040;8.850;2023-12-20T15:32:21;6.80;99.90
32334;DHT22;18810;53.040;8.850;2023-12-20T15:34:48;6.70;99.90
32334;DHT22;18810;53.040;8.850;2023-12-20T15:37:14;6.80;99.90
32334;DHT22;18810;53.040;8.850;2023-12-20T15:39:41;6.70;99.90
32334;DHT22;18810;53.040;8.850;2023-12-20T15:42:07;6.80;99.90
32334;DHT22;18810;53.040;8.850;2023-12-20T15:44:33;6.80;99.90
32334;DHT22;18810;53.040;8.850;2023-12-20T15:46:59;6.80;99.90
32334;DHT22;18810;53.040;8.850;2023-12-20T15:49:24;6.70;99.90
32334;DHT22;18810;53.040;8.850;2023-12-20T15:51:50;6.70;99.90
32334;DHT22;18810;53.040;8.850;2023-12-20T15:54:16;6.70;99.90
32334;DHT22;18810;53.040;8.850;2023-12-20T15:56:42;6.90;99.90
32334;DHT22;18810;53.040;8.850;2023-12-20T15:59:10;6.80;99.90
32334;DHT22;18810;53.040;8.850;2023-12-20T16:01:36;6.70;99.90
32334;DHT22;18810;53.040;8.850;2023-12-20T16:04:02;6.70;99.90
32334;DHT22;18810;53.040;8.850;2023-12-20T16:06:28;6.70;99.90
32334;DHT22;18810;53.040;8.850;2023-12-20T16:08:54;6.50;99.90
32334;DHT22;18810;53.040;8.850;2023-12-20T16:11:20;6.60;99.90
32334;DHT22;18810;53.040;8.850;2023-12-20T16:13:46;6.60;99.90
32334;DHT22;18810;53.040;8.850;2023-12-20T16:16:11;6.50;99.90
32334;DHT22;18810;53.040;8.850;2023-12-20T16:18:37;6.50;99.90
32334;DHT22;18810;53.040;8.850;2023-12-20T16:21:03;6.40;99.90